Bookmark and Share
Track history (hours):
 

Ufo 3

Last reported at 2014-Apr-24 17:06 UTC. Time now 2014-Apr-24 19:58 UTC.
Position N 44°03' E 009°50'.

Length 28 m.

Type: Passenger vessel. MMSI: 247031600.

NotesDate/timePositionNaut miles runAvg speedWind from/ knotsBaromVisibWave heightAir tempDewpointWater temp
2014-Apr-24 17:06N 44°03' E 009°50'1 1.2
2014-Apr-24 16:34N 44°03' E 009°51'4 4.0
2014-Apr-24 15:33N 44°04' E 009°46'6 6.2
2014-Apr-24 14:33N 44°09' E 009°39'0 0.0
2014-Apr-24 12:22N 44°09' E 009°39'0 0.0
2014-Apr-24 11:11N 44°09' E 009°39'4 2.0
2014-Apr-24 09:19N 44°06' E 009°43'0 0.2
2014-Apr-24 08:29N 44°06' E 009°43'1 0.7
2014-Apr-24 07:22N 44°06' E 009°44'6 7.0
2014-Apr-24 06:33N 44°03' E 009°51'0 0.0
2014-Apr-23 13:33N 44°03' E 009°50'0 0.0
2014-Apr-23 12:33N 44°03' E 009°50'0 0.0
2014-Apr-23 11:33N 44°03' E 009°50'6 2.6
2014-Apr-23 09:14N 44°06' E 009°43'1 0.9
2014-Apr-23 08:24N 44°06' E 009°44'0 0.2
2014-Apr-23 07:32N 44°06' E 009°44'5 5.4
2014-Apr-23 06:33N 44°03' E 009°50'0 0.0
2014-Apr-23 05:33N 44°03' E 009°50'0 0.0
2014-Apr-22 17:26N 44°03' E 009°50'1211.7
2014-Apr-22 16:26N 44°09' E 009°36'6 6.2
2014-Apr-22 15:24N 44°06' E 009°44'5 6.3
2014-Apr-22 14:34N 44°03' E 009°50'2 2.5
2014-Apr-22 13:33N 44°04' E 009°47'3 0.9
2014-Apr-22 10:26N 44°06' E 009°44'5 6.0
2014-Apr-22 09:34N 44°03' E 009°50'0 0.0
2014-Apr-22 08:34N 44°03' E 009°50'0 0.0
2014-Apr-22 07:34N 44°03' E 009°50'0 0.0
2014-Apr-22 06:34N 44°03' E 009°50'0 0.0
2014-Apr-21 15:12N 44°03' E 009°50'10 5.0
2014-Apr-21 13:16N 44°09' E 009°39'4 5.3
2014-Apr-21 12:26N 44°06' E 009°44'5 6.0
2014-Apr-21 11:33N 44°03' E 009°50'0 0.0
2014-Apr-21 10:33N 44°03' E 009°50'3 2.7
2014-Apr-21 09:34N 44°04' E 009°47'7 6.2
2014-Apr-21 08:27N 44°08' E 009°39'2 2.6
2014-Apr-21 07:33N 44°07' E 009°42'7 7.3
2014-Apr-21 06:33N 44°03' E 009°50'0 0.0
2014-Apr-21 05:33N 44°03' E 009°50'3 0.3
2014-Apr-20 16:33N 44°04' E 009°54'3 3.3
2014-Apr-20 15:33N 44°03' E 009°50'0 0.0
2014-Apr-20 14:33N 44°03' E 009°50'7 7.4
2014-Apr-20 13:33N 44°07' E 009°41'2 1.1
2014-Apr-20 11:33N 44°08' E 009°39'4 3.7
2014-Apr-20 10:29N 44°06' E 009°44'4 3.6
2014-Apr-20 09:21N 44°09' E 009°39'4 5.3
2014-Apr-20 08:31N 44°06' E 009°44'8 8.1
2014-Apr-20 07:33N 44°04' E 009°55'3 3.4
2014-Apr-20 06:33N 44°03' E 009°50'0 0.0
2014-Apr-20 05:33N 44°03' E 009°50'0 0.0
2014-Apr-19 08:07N 44°03' E 009°50'0 0.0
2014-Apr-19 07:33N 44°03' E 009°50'0 0.0
2014-Apr-19 06:33N 44°03' E 009°50'3 0.2
2014-Apr-18 15:33N 44°04' E 009°55'3 3.4
2014-Apr-18 14:33N 44°03' E 009°50'0 0.0
2014-Apr-18 13:33N 44°03' E 009°50'0 0.0
2014-Apr-18 12:33N 44°03' E 009°50'0 0.0
2014-Apr-18 11:33N 44°03' E 009°50'5 5.2
2014-Apr-18 10:33N 44°05' E 009°44'1 0.5
2014-Apr-18 07:33N 44°05' E 009°45'4 3.7
2014-Apr-18 06:33N 44°03' E 009°50'3 0.2
2014-Apr-17 15:33N 44°04' E 009°54'3 3.4
2014-Apr-17 14:33N 44°03' E 009°50'0 0.0
2014-Apr-17 13:33N 44°03' E 009°50'0 0.0
2014-Apr-17 12:33N 44°03' E 009°50'0 0.0
2014-Apr-17 11:33N 44°03' E 009°50'0 0.0
2014-Apr-17 10:33N 44°03' E 009°50'5 5.0
2014-Apr-17 09:33N 44°05' E 009°44'2 2.4
2014-Apr-17 08:33N 44°04' E 009°47'3 3.2
2014-Apr-17 07:33N 44°04' E 009°51'1 0.9
2014-Apr-17 06:33N 44°03' E 009°50'0 0.0
2014-Apr-17 05:33N 44°03' E 009°50'0 0.0
2014-Apr-16 16:14N 44°03' E 009°50'9 7.9
2014-Apr-16 15:04N 44°08' E 009°40'0 0.8
2014-Apr-16 14:27N 44°09' E 009°39'4 4.5
2014-Apr-16 13:27N 44°06' E 009°44'5 5.9
2014-Apr-16 12:33N 44°03' E 009°50'0 0.0
2014-Apr-16 11:33N 44°03' E 009°50'3 2.8
2014-Apr-16 10:33N 44°06' E 009°50'3 2.9
2014-Apr-16 09:33N 44°03' E 009°49'9 7.5
2014-Apr-16 08:25N 44°09' E 009°39'2 2.6
2014-Apr-16 07:32N 44°07' E 009°42'7 7.5
2014-Apr-16 06:33N 44°03' E 009°50'0 0.0
2014-Apr-16 05:33N 44°03' E 009°50'3 0.2
2014-Apr-15 15:33N 44°04' E 009°55'3 3.4
2014-Apr-15 14:33N 44°03' E 009°50'0 0.0
2014-Apr-15 12:34N 44°03' E 009°50'0 0.0
2014-Apr-15 11:34N 44°03' E 009°50'0 0.0
2014-Apr-15 10:34N 44°03' E 009°50'0 0.0
2014-Apr-15 09:34N 44°03' E 009°50'0 0.0
2014-Apr-15 08:34N 44°03' E 009°50'0 0.0
2014-Apr-15 07:34N 44°03' E 009°50'0 0.0
2014-Apr-15 06:34N 44°03' E 009°50'0 0.0
2014-Apr-15 05:34N 44°03' E 009°50'  

Dump ship's entire track history

sailing weather and tide predictions

Ufo 3 — IUNV — position and weather